sensor_id;sensor_type;location;lat;lon;timestamp;temperature;humidity
9790;DHT22;4934;50.852;8.098;2023-11-19T00:00:42;7.80;99.90
9790;DHT22;4934;50.852;8.098;2023-11-19T00:03:08;7.80;99.90
9790;DHT22;4934;50.852;8.098;2023-11-19T00:05:34;7.80;99.90
9790;DHT22;4934;50.852;8.098;2023-11-19T00:07:59;7.80;99.90
9790;DHT22;4934;50.852;8.098;2023-11-19T00:10:25;7.80;99.90
9790;DHT22;4934;50.852;8.098;2023-11-19T00:12:50;7.90;99.90
9790;DHT22;4934;50.852;8.098;2023-11-19T00:15:17;7.90;99.90
9790;DHT22;4934;50.852;8.098;2023-11-19T00:17:45;8.00;99.90
9790;DHT22;4934;50.852;8.098;2023-11-19T00:20:12;8.00;99.90
9790;DHT22;4934;50.852;8.098;2023-11-19T00:22:38;8.00;99.90
9790;DHT22;4934;50.852;8.098;2023-11-19T00:25:04;8.10;99.90
9790;DHT22;4934;50.852;8.098;2023-11-19T00:27:31;8.20;99.90
9790;DHT22;4934;50.852;8.098;2023-11-19T00:29:56;8.20;99.90
9790;DHT22;4934;50.852;8.098;2023-11-19T00:32:22;8.20;99.90
9790;DHT22;4934;50.852;8.098;2023-11-19T00:34:48;8.30;99.90
9790;DHT22;4934;50.852;8.098;2023-11-19T00:37:14;8.40;99.90
9790;DHT22;4934;50.852;8.098;2023-11-19T00:39:41;8.40;99.90
9790;DHT22;4934;50.852;8.098;2023-11-19T00:42:06;8.40;99.90
9790;DHT22;4934;50.852;8.098;2023-11-19T00:44:32;8.50;99.90
9790;DHT22;4934;50.852;8.098;2023-11-19T00:46:58;8.50;99.90
9790;DHT22;4934;50.852;8.098;2023-11-19T00:49:25;8.60;99.90
9790;DHT22;4934;50.852;8.098;2023-11-19T00:51:50;8.60;99.90
9790;DHT22;4934;50.852;8.098;2023-11-19T00:54:16;8.70;99.90
9790;DHT22;4934;50.852;8.098;2023-11-19T00:56:41;8.70;99.90
9790;DHT22;4934;50.852;8.098;2023-11-19T00:59:07;8.70;99.90
9790;DHT22;4934;50.852;8.098;2023-11-19T01:01:33;8.80;99.90
9790;DHT22;4934;50.852;8.098;2023-11-19T01:03:59;8.80;99.90
9790;DHT22;4934;50.852;8.098;2023-11-19T01:06:31;8.80;99.90
9790;DHT22;4934;50.852;8.098;2023-11-19T01:08:57;8.90;99.90
9790;DHT22;4934;50.852;8.098;2023-11-19T01:11:24;8.90;99.90
9790;DHT22;4934;50.852;8.098;2023-11-19T01:13:50;8.90;99.90
9790;DHT22;4934;50.852;8.098;2023-11-19T01:16:16;8.90;99.90
9790;DHT22;4934;50.852;8.098;2023-11-19T01:18:42;9.00;99.90
9790;DHT22;4934;50.852;8.098;2023-11-19T01:21:07;9.00;99.90
9790;DHT22;4934;50.852;8.098;2023-11-19T01:23:34;9.10;99.90
9790;DHT22;4934;50.852;8.098;2023-11-19T01:26:00;9.10;99.90
9790;DHT22;4934;50.852;8.098;2023-11-19T01:28:25;9.10;99.90
9790;DHT22;4934;50.852;8.098;2023-11-19T01:30:51;9.10;99.90
9790;DHT22;4934;50.852;8.098;2023-11-19T01:33:17;9.10;99.90
9790;DHT22;4934;50.852;8.098;2023-11-19T01:35:42;9.20;99.90
9790;DHT22;4934;50.852;8.098;2023-11-19T01:38:08;9.10;99.90
9790;DHT22;4934;50.852;8.098;2023-11-19T01:40:34;9.20;99.90
9790;DHT22;4934;50.852;8.098;2023-11-19T01:43:02;9.20;99.90
9790;DHT22;4934;50.852;8.098;2023-11-19T01:45:29;9.20;99.90
9790;DHT22;4934;50.852;8.098;2023-11-19T01:48:01;9.20;99.90
9790;DHT22;4934;50.852;8.098;2023-11-19T01:50:30;9.20;99.90
9790;DHT22;4934;50.852;8.098;2023-11-19T01:52:57;9.20;99.90
9790;DHT22;4934;50.852;8.098;2023-11-19T01:55:27;9.30;99.90
9790;DHT22;4934;50.852;8.098;2023-11-19T01:57:59;9.30;99.90
9790;DHT22;4934;50.852;8.098;2023-11-19T02:00:26;9.30;99.90
9790;DHT22;4934;50.852;8.098;2023-11-19T02:02:52;9.30;99.90
9790;DHT22;4934;50.852;8.098;2023-11-19T02:05:18;9.40;99.90
9790;DHT22;4934;50.852;8.098;2023-11-19T02:07:44;9.50;99.90
9790;DHT22;4934;50.852;8.098;2023-11-19T02:10:11;9.40;99.90
9790;DHT22;4934;50.852;8.098;2023-11-19T02:12:43;9.40;99.90
9790;DHT22;4934;50.852;8.098;2023-11-19T02:15:09;9.40;99.90
9790;DHT22;4934;50.852;8.098;2023-11-19T02:17:35;9.50;99.90
9790;DHT22;4934;50.852;8.098;2023-11-19T02:20:06;9.50;99.90
9790;DHT22;4934;50.852;8.098;2023-11-19T02:22:37;9.50;99.90
9790;DHT22;4934;50.852;8.098;2023-11-19T02:25:07;9.50;99.90
9790;DHT22;4934;50.852;8.098;2023-11-19T02:27:46;9.50;99.90
9790;DHT22;4934;50.852;8.098;2023-11-19T02:30:14;9.50;99.90
9790;DHT22;4934;50.852;8.098;2023-11-19T02:32:41;9.60;99.90
9790;DHT22;4934;50.852;8.098;2023-11-19T02:35:07;9.60;99.90
9790;DHT22;4934;50.852;8.098;2023-11-19T02:37:35;9.60;99.90
9790;DHT22;4934;50.852;8.098;2023-11-19T02:40:01;9.60;99.90
9790;DHT22;4934;50.852;8.098;2023-11-19T02:42:30;9.60;99.90
9790;DHT22;4934;50.852;8.098;2023-11-19T02:44:57;9.70;99.90
9790;DHT22;4934;50.852;8.098;2023-11-19T02:47:22;9.70;99.90
9790;DHT22;4934;50.852;8.098;2023-11-19T02:49:49;9.80;99.90
9790;DHT22;4934;50.852;8.098;2023-11-19T02:52:15;9.80;99.90
9790;DHT22;4934;50.852;8.098;2023-11-19T02:54:42;9.80;99.90
9790;DHT22;4934;50.852;8.098;2023-11-19T02:57:10;9.80;99.90
9790;DHT22;4934;50.852;8.098;2023-11-19T02:59:38;9.90;99.90
9790;DHT22;4934;50.852;8.098;2023-11-19T03:02:08;9.90;99.90
9790;DHT22;4934;50.852;8.098;2023-11-19T03:04:37;9.90;99.90
9790;DHT22;4934;50.852;8.098;2023-11-19T03:07:05;10.00;99.90
9790;DHT22;4934;50.852;8.098;2023-11-19T03:09:32;10.00;99.90
9790;DHT22;4934;50.852;8.098;2023-11-19T03:11:59;10.00;99.90
9790;DHT22;4934;50.852;8.098;2023-11-19T03:14:25;10.00;99.90
9790;DHT22;4934;50.852;8.098;2023-11-19T03:16:51;10.00;99.90
9790;DHT22;4934;50.852;8.098;2023-11-19T03:19:17;10.10;99.90
9790;DHT22;4934;50.852;8.098;2023-11-19T03:21:42;10.10;99.90
9790;DHT22;4934;50.852;8.098;2023-11-19T03:24:08;10.10;99.90
9790;DHT22;4934;50.852;8.098;2023-11-19T03:26:34;10.10;99.90
9790;DHT22;4934;50.852;8.098;2023-11-19T03:29:00;10.20;99.90
9790;DHT22;4934;50.852;8.098;2023-11-19T03:31:26;10.10;99.90
9790;DHT22;4934;50.852;8.098;2023-11-19T03:33:52;10.20;99.90
9790;DHT22;4934;50.852;8.098;2023-11-19T03:36:17;10.20;99.90
9790;DHT22;4934;50.852;8.098;2023-11-19T03:38:43;10.20;99.90
9790;DHT22;4934;50.852;8.098;2023-11-19T03:41:12;10.20;99.90
9790;DHT22;4934;50.852;8.098;2023-11-19T03:43:40;10.30;99.90
9790;DHT22;4934;50.852;8.098;2023-11-19T03:46:19;10.30;99.90
9790;DHT22;4934;50.852;8.098;2023-11-19T03:48:45;10.20;99.90
9790;DHT22;4934;50.852;8.098;2023-11-19T03:51:12;10.20;99.90
9790;DHT22;4934;50.852;8.098;2023-11-19T03:53:44;10.20;99.90
9790;DHT22;4934;50.852;8.098;2023-11-19T03:56:10;10.30;99.90
9790;DHT22;4934;50.852;8.098;2023-11-19T03:58:37;10.30;99.90
9790;DHT22;4934;50.852;8.098;2023-11-19T04:01:04;10.30;99.90
9790;DHT22;4934;50.852;8.098;2023-11-19T04:03:29;10.30;99.90
9790;DHT22;4934;50.852;8.098;2023-11-19T04:05:55;10.30;99.90
9790;DHT22;4934;50.852;8.098;2023-11-19T04:08:21;10.20;99.90
9790;DHT22;4934;50.852;8.098;2023-11-19T04:10:47;10.20;99.90
9790;DHT22;4934;50.852;8.098;2023-11-19T04:13:13;10.20;99.90
9790;DHT22;4934;50.852;8.098;2023-11-19T04:15:39;10.20;99.90
9790;DHT22;4934;50.852;8.098;2023-11-19T04:18:04;10.20;99.90
9790;DHT22;4934;50.852;8.098;2023-11-19T04:20:30;10.20;99.90
9790;DHT22;4934;50.852;8.098;2023-11-19T04:22:57;10.20;99.90
9790;DHT22;4934;50.852;8.098;2023-11-19T04:25:23;10.20;99.90
9790;DHT22;4934;50.852;8.098;2023-11-19T04:27:51;10.20;99.90
9790;DHT22;4934;50.852;8.098;2023-11-19T04:30:17;10.30;99.90
9790;DHT22;4934;50.852;8.098;2023-11-19T04:32:43;10.30;99.90
9790;DHT22;4934;50.852;8.098;2023-11-19T04:35:09;10.30;99.90
9790;DHT22;4934;50.852;8.098;2023-11-19T04:37:35;10.30;99.90
9790;DHT22;4934;50.852;8.098;2023-11-19T04:40:01;10.30;99.90
9790;DHT22;4934;50.852;8.098;2023-11-19T04:42:27;10.30;99.90
9790;DHT22;4934;50.852;8.098;2023-11-19T04:44:52;10.30;99.90
9790;DHT22;4934;50.852;8.098;2023-11-19T04:47:18;10.30;99.90
9790;DHT22;4934;50.852;8.098;2023-11-19T04:49:43;10.30;99.90
9790;DHT22;4934;50.852;8.098;2023-11-19T04:52:09;10.40;99.90
9790;DHT22;4934;50.852;8.098;2023-11-19T04:54:35;10.40;99.90
9790;DHT22;4934;50.852;8.098;2023-11-19T04:57:00;10.40;99.90
9790;DHT22;4934;50.852;8.098;2023-11-19T04:59:26;10.30;99.90
9790;DHT22;4934;50.852;8.098;2023-11-19T05:01:53;10.30;99.90
9790;DHT22;4934;50.852;8.098;2023-11-19T05:04:18;10.30;99.90
9790;DHT22;4934;50.852;8.098;2023-11-19T05:06:44;10.30;99.90
9790;DHT22;4934;50.852;8.098;2023-11-19T05:09:10;10.30;99.90
9790;DHT22;4934;50.852;8.098;2023-11-19T05:11:38;10.40;99.90
9790;DHT22;4934;50.852;8.098;2023-11-19T05:14:04;10.40;99.90
9790;DHT22;4934;50.852;8.098;2023-11-19T05:16:30;10.50;99.90
9790;DHT22;4934;50.852;8.098;2023-11-19T05:18:56;10.50;99.90
9790;DHT22;4934;50.852;8.098;2023-11-19T05:21:21;10.40;99.90
9790;DHT22;4934;50.852;8.098;2023-11-19T05:23:47;10.40;99.90
9790;DHT22;4934;50.852;8.098;2023-11-19T05:26:20;10.40;99.90
9790;DHT22;4934;50.852;8.098;2023-11-19T05:28:46;10.40;99.90
9790;DHT22;4934;50.852;8.098;2023-11-19T05:31:12;10.40;99.90
9790;DHT22;4934;50.852;8.098;2023-11-19T05:33:38;10.40;99.90
9790;DHT22;4934;50.852;8.098;2023-11-19T05:36:04;10.50;99.90
9790;DHT22;4934;50.852;8.098;2023-11-19T05:38:30;10.50;99.90
9790;DHT22;4934;50.852;8.098;2023-11-19T05:40:56;10.50;99.90
9790;DHT22;4934;50.852;8.098;2023-11-19T05:43:22;10.50;99.90
9790;DHT22;4934;50.852;8.098;2023-11-19T05:45:48;10.60;99.90
9790;DHT22;4934;50.852;8.098;2023-11-19T05:48:13;10.60;99.90
9790;DHT22;4934;50.852;8.098;2023-11-19T05:50:39;10.60;99.90
9790;DHT22;4934;50.852;8.098;2023-11-19T05:53:05;10.60;99.90
9790;DHT22;4934;50.852;8.098;2023-11-19T05:55:34;10.60;99.90
9790;DHT22;4934;50.852;8.098;2023-11-19T05:58:01;10.60;99.90
9790;DHT22;4934;50.852;8.098;2023-11-19T06:00:26;10.50;99.90
9790;DHT22;4934;50.852;8.098;2023-11-19T06:02:52;10.50;99.90
9790;DHT22;4934;50.852;8.098;2023-11-19T06:05:18;10.50;99.90
9790;DHT22;4934;50.852;8.098;2023-11-19T06:07:44;10.50;99.90
9790;DHT22;4934;50.852;8.098;2023-11-19T06:10:10;10.50;99.90
9790;DHT22;4934;50.852;8.098;2023-11-19T06:12:36;10.50;99.90
9790;DHT22;4934;50.852;8.098;2023-11-19T06:15:07;10.40;99.90
9790;DHT22;4934;50.852;8.098;2023-11-19T06:17:34;10.40;99.90
9790;DHT22;4934;50.852;8.098;2023-11-19T06:19:59;10.50;99.90
9790;DHT22;4934;50.852;8.098;2023-11-19T06:22:26;10.40;99.90
9790;DHT22;4934;50.852;8.098;2023-11-19T06:24:51;10.50;99.90
9790;DHT22;4934;50.852;8.098;2023-11-19T06:27:21;10.50;99.90
9790;DHT22;4934;50.852;8.098;2023-11-19T06:29:47;10.50;99.90
9790;DHT22;4934;50.852;8.098;2023-11-19T06:32:13;10.50;99.90
9790;DHT22;4934;50.852;8.098;2023-11-19T06:34:38;10.40;99.90
9790;DHT22;4934;50.852;8.098;2023-11-19T06:37:04;10.50;99.90
9790;DHT22;4934;50.852;8.098;2023-11-19T06:39:30;10.50;99.90
9790;DHT22;4934;50.852;8.098;2023-11-19T06:41:55;10.40;99.90
9790;DHT22;4934;50.852;8.098;2023-11-19T06:44:22;10.40;99.90
9790;DHT22;4934;50.852;8.098;2023-11-19T06:46:48;10.30;99.90
9790;DHT22;4934;50.852;8.098;2023-11-19T06:49:14;10.40;99.90
9790;DHT22;4934;50.852;8.098;2023-11-19T06:51:42;10.40;99.90
9790;DHT22;4934;50.852;8.098;2023-11-19T06:54:09;10.40;99.90
9790;DHT22;4934;50.852;8.098;2023-11-19T06:56:35;10.40;99.90
9790;DHT22;4934;50.852;8.098;2023-11-19T06:59:00;10.40;99.90
9790;DHT22;4934;50.852;8.098;2023-11-19T07:01:26;10.40;99.90
9790;DHT22;4934;50.852;8.098;2023-11-19T07:03:52;10.40;99.90
9790;DHT22;4934;50.852;8.098;2023-11-19T07:06:18;10.50;99.90
9790;DHT22;4934;50.852;8.098;2023-11-19T07:08:44;10.50;99.90
9790;DHT22;4934;50.852;8.098;2023-11-19T07:11:14;10.40;99.90
9790;DHT22;4934;50.852;8.098;2023-11-19T07:13:41;10.50;99.90
9790;DHT22;4934;50.852;8.098;2023-11-19T07:16:07;10.50;99.90
9790;DHT22;4934;50.852;8.098;2023-11-19T07:18:35;10.50;99.90
9790;DHT22;4934;50.852;8.098;2023-11-19T07:21:01;10.50;99.90
9790;DHT22;4934;50.852;8.098;2023-11-19T07:23:28;10.50;99.90
9790;DHT22;4934;50.852;8.098;2023-11-19T07:25:53;10.40;99.90
9790;DHT22;4934;50.852;8.098;2023-11-19T07:28:19;10.50;99.90
9790;DHT22;4934;50.852;8.098;2023-11-19T07:30:45;10.50;99.90
9790;DHT22;4934;50.852;8.098;2023-11-19T07:33:10;10.50;99.90
9790;DHT22;4934;50.852;8.098;2023-11-19T07:35:37;10.50;99.90
9790;DHT22;4934;50.852;8.098;2023-11-19T07:38:02;10.60;99.90
9790;DHT22;4934;50.852;8.098;2023-11-19T07:40:28;10.50;99.90
9790;DHT22;4934;50.852;8.098;2023-11-19T07:42:54;10.50;99.90
9790;DHT22;4934;50.852;8.098;2023-11-19T07:45:19;10.50;99.90
9790;DHT22;4934;50.852;8.098;2023-11-19T07:47:45;10.50;99.90
9790;DHT22;4934;50.852;8.098;2023-11-19T07:50:11;10.50;99.90
9790;DHT22;4934;50.852;8.098;2023-11-19T07:52:39;10.40;99.90
9790;DHT22;4934;50.852;8.098;2023-11-19T07:55:05;10.40;99.90
9790;DHT22;4934;50.852;8.098;2023-11-19T07:57:31;10.40;99.90
9790;DHT22;4934;50.852;8.098;2023-11-19T08:00:00;10.40;99.90
9790;DHT22;4934;50.852;8.098;2023-11-19T08:02:26;10.40;99.90
9790;DHT22;4934;50.852;8.098;2023-11-19T08:04:52;10.40;99.90
9790;DHT22;4934;50.852;8.098;2023-11-19T08:07:20;10.40;99.90
9790;DHT22;4934;50.852;8.098;2023-11-19T08:09:46;10.30;99.90
9790;DHT22;4934;50.852;8.098;2023-11-19T08:12:11;10.30;99.90
9790;DHT22;4934;50.852;8.098;2023-11-19T08:14:39;10.30;99.90
9790;DHT22;4934;50.852;8.098;2023-11-19T08:17:05;10.30;99.90
9790;DHT22;4934;50.852;8.098;2023-11-19T08:19:30;10.30;99.90
9790;DHT22;4934;50.852;8.098;2023-11-19T08:21:56;10.40;99.90
9790;DHT22;4934;50.852;8.098;2023-11-19T08:24:22;10.40;99.90
9790;DHT22;4934;50.852;8.098;2023-11-19T08:26:48;10.50;99.90
9790;DHT22;4934;50.852;8.098;2023-11-19T08:29:13;10.50;99.90
9790;DHT22;4934;50.852;8.098;2023-11-19T08:31:39;10.60;99.90
9790;DHT22;4934;50.852;8.098;2023-11-19T08:34:05;10.60;99.90
9790;DHT22;4934;50.852;8.098;2023-11-19T08:36:34;10.60;99.90
9790;DHT22;4934;50.852;8.098;2023-11-19T08:38:59;10.60;99.90
9790;DHT22;4934;50.852;8.098;2023-11-19T08:41:25;10.70;99.90
9790;DHT22;4934;50.852;8.098;2023-11-19T08:43:51;10.70;99.90
9790;DHT22;4934;50.852;8.098;2023-11-19T08:46:17;10.70;99.90
9790;DHT22;4934;50.852;8.098;2023-11-19T08:48:42;10.80;99.90
9790;DHT22;4934;50.852;8.098;2023-11-19T08:51:08;10.80;99.90
9790;DHT22;4934;50.852;8.098;2023-11-19T08:53:34;10.80;99.90
9790;DHT22;4934;50.852;8.098;2023-11-19T08:55:59;10.70;99.90
9790;DHT22;4934;50.852;8.098;2023-11-19T08:58:26;10.70;99.90
9790;DHT22;4934;50.852;8.098;2023-11-19T09:00:51;10.70;99.90
9790;DHT22;4934;50.852;8.098;2023-11-19T09:03:17;10.70;99.90
9790;DHT22;4934;50.852;8.098;2023-11-19T09:05:42;10.60;99.90
9790;DHT22;4934;50.852;8.098;2023-11-19T09:08:09;10.60;99.90
9790;DHT22;4934;50.852;8.098;2023-11-19T09:10:36;10.60;99.90
9790;DHT22;4934;50.852;8.098;2023-11-19T09:13:02;10.50;99.90
9790;DHT22;4934;50.852;8.098;2023-11-19T09:15:27;10.60;99.90
9790;DHT22;4934;50.852;8.098;2023-11-19T09:17:54;10.60;99.90
9790;DHT22;4934;50.852;8.098;2023-11-19T09:20:19;10.60;99.90
9790;DHT22;4934;50.852;8.098;2023-11-19T09:22:45;10.60;99.90
9790;DHT22;4934;50.852;8.098;2023-11-19T09:25:11;10.80;99.90
9790;DHT22;4934;50.852;8.098;2023-11-19T09:27:37;10.80;99.90
9790;DHT22;4934;50.852;8.098;2023-11-19T09:30:03;10.80;99.90
9790;DHT22;4934;50.852;8.098;2023-11-19T09:32:29;10.80;99.90
9790;DHT22;4934;50.852;8.098;2023-11-19T09:34:55;10.90;99.90
9790;DHT22;4934;50.852;8.098;2023-11-19T09:37:20;11.00;99.90
9790;DHT22;4934;50.852;8.098;2023-11-19T09:39:46;11.00;99.90
9790;DHT22;4934;50.852;8.098;2023-11-19T09:42:12;11.10;99.90
9790;DHT22;4934;50.852;8.098;2023-11-19T09:44:38;11.10;99.90
9790;DHT22;4934;50.852;8.098;2023-11-19T09:47:06;11.10;99.90
9790;DHT22;4934;50.852;8.098;2023-11-19T09:49:32;11.20;99.90
9790;DHT22;4934;50.852;8.098;2023-11-19T09:51:58;11.30;99.90
9790;DHT22;4934;50.852;8.098;2023-11-19T09:54:24;11.40;99.90
9790;DHT22;4934;50.852;8.098;2023-11-19T09:56:51;11.30;99.90
9790;DHT22;4934;50.852;8.098;2023-11-19T09:59:17;11.40;99.90
9790;DHT22;4934;50.852;8.098;2023-11-19T10:01:45;11.60;99.90
9790;DHT22;4934;50.852;8.098;2023-11-19T10:04:15;11.70;99.90
9790;DHT22;4934;50.852;8.098;2023-11-19T10:06:41;11.80;99.90
9790;DHT22;4934;50.852;8.098;2023-11-19T10:09:07;11.90;99.90
9790;DHT22;4934;50.852;8.098;2023-11-19T10:11:33;12.00;99.90
9790;DHT22;4934;50.852;8.098;2023-11-19T10:13:59;12.10;99.90
9790;DHT22;4934;50.852;8.098;2023-11-19T10:16:29;12.20;99.90
9790;DHT22;4934;50.852;8.098;2023-11-19T10:18:56;12.20;99.90
9790;DHT22;4934;50.852;8.098;2023-11-19T10:21:21;12.30;99.90
9790;DHT22;4934;50.852;8.098;2023-11-19T10:23:57;12.30;99.90
9790;DHT22;4934;50.852;8.098;2023-11-19T10:26:25;12.30;99.90
9790;DHT22;4934;50.852;8.098;2023-11-19T10:28:51;12.20;99.90
9790;DHT22;4934;50.852;8.098;2023-11-19T10:31:18;12.10;99.90
9790;DHT22;4934;50.852;8.098;2023-11-19T10:33:44;12.10;99.90
9790;DHT22;4934;50.852;8.098;2023-11-19T10:36:13;12.10;99.90
9790;DHT22;4934;50.852;8.098;2023-11-19T10:38:39;12.00;99.90
9790;DHT22;4934;50.852;8.098;2023-11-19T10:41:05;12.00;99.90
9790;DHT22;4934;50.852;8.098;2023-11-19T10:43:31;12.00;99.90
9790;DHT22;4934;50.852;8.098;2023-11-19T10:46:10;11.90;99.90
9790;DHT22;4934;50.852;8.098;2023-11-19T10:48:36;12.00;99.90
9790;DHT22;4934;50.852;8.098;2023-11-19T10:51:05;12.20;99.90
9790;DHT22;4934;50.852;8.098;2023-11-19T10:53:35;12.10;99.90
9790;DHT22;4934;50.852;8.098;2023-11-19T10:56:02;12.20;99.90
9790;DHT22;4934;50.852;8.098;2023-11-19T10:58:32;12.20;99.90
9790;DHT22;4934;50.852;8.098;2023-11-19T11:00:59;12.20;99.90
9790;DHT22;4934;50.852;8.098;2023-11-19T11:03:31;12.30;99.90
9790;DHT22;4934;50.852;8.098;2023-11-19T11:06:03;12.30;99.90
9790;DHT22;4934;50.852;8.098;2023-11-19T11:08:30;12.30;99.90
9790;DHT22;4934;50.852;8.098;2023-11-19T11:10:56;12.30;99.90
9790;DHT22;4934;50.852;8.098;2023-11-19T11:13:24;12.40;99.90
9790;DHT22;4934;50.852;8.098;2023-11-19T11:15:50;12.30;99.90
9790;DHT22;4934;50.852;8.098;2023-11-19T11:18:16;12.30;99.90
9790;DHT22;4934;50.852;8.098;2023-11-19T11:20:45;12.30;99.90
9790;DHT22;4934;50.852;8.098;2023-11-19T11:26:43;12.30;99.90
9790;DHT22;4934;50.852;8.098;2023-11-19T11:29:11;12.30;99.90
9790;DHT22;4934;50.852;8.098;2023-11-19T11:32:00;12.50;99.90
9790;DHT22;4934;50.852;8.098;2023-11-19T11:37:30;12.60;99.90
9790;DHT22;4934;50.852;8.098;2023-11-19T11:40:01;12.50;99.90
9790;DHT22;4934;50.852;8.098;2023-11-19T11:42:34;12.60;99.90
9790;DHT22;4934;50.852;8.098;2023-11-19T11:45:03;12.50;99.90
9790;DHT22;4934;50.852;8.098;2023-11-19T11:50:18;12.50;99.90
9790;DHT22;4934;50.852;8.098;2023-11-19T11:57:59;12.50;99.90
9790;DHT22;4934;50.852;8.098;2023-11-19T12:00:41;12.50;99.90
9790;DHT22;4934;50.852;8.098;2023-11-19T12:03:08;12.50;99.90
9790;DHT22;4934;50.852;8.098;2023-11-19T12:05:40;12.50;99.90
9790;DHT22;4934;50.852;8.098;2023-11-19T12:08:07;12.50;99.90
9790;DHT22;4934;50.852;8.098;2023-11-19T12:10:46;12.40;99.90
9790;DHT22;4934;50.852;8.098;2023-11-19T12:13:18;12.50;99.90
9790;DHT22;4934;50.852;8.098;2023-11-19T12:18:29;12.60;99.90
9790;DHT22;4934;50.852;8.098;2023-11-19T12:20:56;12.70;99.90
9790;DHT22;4934;50.852;8.098;2023-11-19T12:23:22;12.70;99.90
9790;DHT22;4934;50.852;8.098;2023-11-19T12:25:48;12.70;99.90
9790;DHT22;4934;50.852;8.098;2023-11-19T12:28:15;12.70;99.90
9790;DHT22;4934;50.852;8.098;2023-11-19T12:30:43;12.80;99.90
9790;DHT22;4934;50.852;8.098;2023-11-19T12:33:10;12.60;99.90
9790;DHT22;4934;50.852;8.098;2023-11-19T12:35:46;12.40;99.90
9790;DHT22;4934;50.852;8.098;2023-11-19T12:38:25;12.40;99.90
9790;DHT22;4934;50.852;8.098;2023-11-19T12:41:07;12.40;99.90
9790;DHT22;4934;50.852;8.098;2023-11-19T12:43:34;12.00;99.90
9790;DHT22;4934;50.852;8.098;2023-11-19T12:46:00;12.00;99.90
9790;DHT22;4934;50.852;8.098;2023-11-19T12:48:26;12.00;99.90
9790;DHT22;4934;50.852;8.098;2023-11-19T12:50:56;11.90;99.90
9790;DHT22;4934;50.852;8.098;2023-11-19T12:53:24;11.90;99.90
9790;DHT22;4934;50.852;8.098;2023-11-19T12:55:51;11.80;99.90
9790;DHT22;4934;50.852;8.098;2023-11-19T12:58:33;11.80;99.90
9790;DHT22;4934;50.852;8.098;2023-11-19T13:01:07;11.70;99.90
9790;DHT22;4934;50.852;8.098;2023-11-19T13:03:34;11.60;99.90
9790;DHT22;4934;50.852;8.098;2023-11-19T13:06:09;11.60;99.90
9790;DHT22;4934;50.852;8.098;2023-11-19T13:11:04;11.50;99.90
9790;DHT22;4934;50.852;8.098;2023-11-19T13:13:29;11.50;99.90
9790;DHT22;4934;50.852;8.098;2023-11-19T13:16:03;11.50;99.90
9790;DHT22;4934;50.852;8.098;2023-11-19T13:18:31;11.40;99.90
9790;DHT22;4934;50.852;8.098;2023-11-19T13:20:57;11.40;99.90
9790;DHT22;4934;50.852;8.098;2023-11-19T13:23:22;11.50;99.90
9790;DHT22;4934;50.852;8.098;2023-11-19T13:25:48;11.50;99.90
9790;DHT22;4934;50.852;8.098;2023-11-19T13:28:14;11.40;99.90
9790;DHT22;4934;50.852;8.098;2023-11-19T13:30:40;11.50;99.90
9790;DHT22;4934;50.852;8.098;2023-11-19T13:33:05;11.60;99.90
9790;DHT22;4934;50.852;8.098;2023-11-19T13:35:31;11.60;99.90
9790;DHT22;4934;50.852;8.098;2023-11-19T13:37:56;11.60;99.90
9790;DHT22;4934;50.852;8.098;2023-11-19T13:40:22;11.60;99.90
9790;DHT22;4934;50.852;8.098;2023-11-19T13:42:50;11.60;99.90
9790;DHT22;4934;50.852;8.098;2023-11-19T13:45:15;11.50;99.90
9790;DHT22;4934;50.852;8.098;2023-11-19T13:47:45;11.50;99.90
9790;DHT22;4934;50.852;8.098;2023-11-19T13:50:12;11.50;99.90
9790;DHT22;4934;50.852;8.098;2023-11-19T13:52:40;11.50;99.90
9790;DHT22;4934;50.852;8.098;2023-11-19T13:55:07;11.50;99.90
9790;DHT22;4934;50.852;8.098;2023-11-19T13:57:34;11.40;99.90
9790;DHT22;4934;50.852;8.098;2023-11-19T14:00:02;11.40;99.90
9790;DHT22;4934;50.852;8.098;2023-11-19T14:02:32;11.30;99.90
9790;DHT22;4934;50.852;8.098;2023-11-19T14:04:58;11.20;99.90
9790;DHT22;4934;50.852;8.098;2023-11-19T14:07:23;11.10;99.90
9790;DHT22;4934;50.852;8.098;2023-11-19T14:09:49;11.10;99.90
9790;DHT22;4934;50.852;8.098;2023-11-19T14:12:15;11.00;99.90
9790;DHT22;4934;50.852;8.098;2023-11-19T14:14:41;10.90;99.90
9790;DHT22;4934;50.852;8.098;2023-11-19T14:17:07;10.90;99.90
9790;DHT22;4934;50.852;8.098;2023-11-19T14:19:33;10.90;99.90
9790;DHT22;4934;50.852;8.098;2023-11-19T14:21:59;10.90;99.90
9790;DHT22;4934;50.852;8.098;2023-11-19T14:24:25;10.90;99.90
9790;DHT22;4934;50.852;8.098;2023-11-19T14:26:51;11.00;99.90
9790;DHT22;4934;50.852;8.098;2023-11-19T14:29:17;11.00;99.90
9790;DHT22;4934;50.852;8.098;2023-11-19T14:31:43;11.00;99.90
9790;DHT22;4934;50.852;8.098;2023-11-19T14:34:08;11.10;99.90
9790;DHT22;4934;50.852;8.098;2023-11-19T14:36:34;11.10;99.90
9790;DHT22;4934;50.852;8.098;2023-11-19T14:39:00;11.00;99.90
9790;DHT22;4934;50.852;8.098;2023-11-19T14:41:26;11.00;99.90
9790;DHT22;4934;50.852;8.098;2023-11-19T14:43:51;10.90;99.90
9790;DHT22;4934;50.852;8.098;2023-11-19T14:46:17;10.80;99.90
9790;DHT22;4934;50.852;8.098;2023-11-19T14:48:43;10.80;99.90
9790;DHT22;4934;50.852;8.098;2023-11-19T14:51:09;10.70;99.90
9790;DHT22;4934;50.852;8.098;2023-11-19T14:53:34;10.70;99.90
9790;DHT22;4934;50.852;8.098;2023-11-19T14:56:00;10.60;99.90
9790;DHT22;4934;50.852;8.098;2023-11-19T14:58:26;10.60;99.90
9790;DHT22;4934;50.852;8.098;2023-11-19T15:00:52;10.50;99.90
9790;DHT22;4934;50.852;8.098;2023-11-19T15:03:18;10.50;99.90
9790;DHT22;4934;50.852;8.098;2023-11-19T15:05:48;10.40;99.90
9790;DHT22;4934;50.852;8.098;2023-11-19T15:08:13;10.40;99.90
9790;DHT22;4934;50.852;8.098;2023-11-19T15:10:41;10.40;99.90
9790;DHT22;4934;50.852;8.098;2023-11-19T15:13:07;10.40;99.90
9790;DHT22;4934;50.852;8.098;2023-11-19T15:15:34;10.40;99.90
9790;DHT22;4934;50.852;8.098;2023-11-19T15:18:00;10.40;99.90
9790;DHT22;4934;50.852;8.098;2023-11-19T15:20:26;10.40;99.90
9790;DHT22;4934;50.852;8.098;2023-11-19T15:22:55;10.30;99.90
9790;DHT22;4934;50.852;8.098;2023-11-19T15:25:21;10.30;99.90
9790;DHT22;4934;50.852;8.098;2023-11-19T15:28:23;10.30;99.90
9790;DHT22;4934;50.852;8.098;2023-11-19T15:30:49;10.30;99.90
9790;DHT22;4934;50.852;8.098;2023-11-19T15:33:14;10.30;99.90
9790;DHT22;4934;50.852;8.098;2023-11-19T15:35:41;10.30;99.90
9790;DHT22;4934;50.852;8.098;2023-11-19T15:38:07;10.30;99.90
9790;DHT22;4934;50.852;8.098;2023-11-19T15:40:35;10.30;99.90
9790;DHT22;4934;50.852;8.098;2023-11-19T15:43:03;10.30;99.90
9790;DHT22;4934;50.852;8.098;2023-11-19T15:45:29;10.20;99.90
9790;DHT22;4934;50.852;8.098;2023-11-19T15:47:55;10.20;99.90
9790;DHT22;4934;50.852;8.098;2023-11-19T15:50:20;10.20;99.90
9790;DHT22;4934;50.852;8.098;2023-11-19T15:52:46;10.10;99.90
9790;DHT22;4934;50.852;8.098;2023-11-19T15:55:13;10.20;99.90
9790;DHT22;4934;50.852;8.098;2023-11-19T15:57:39;10.20;99.90
9790;DHT22;4934;50.852;8.098;2023-11-19T16:00:05;10.30;99.90
9790;DHT22;4934;50.852;8.098;2023-11-19T16:02:30;10.30;99.90
9790;DHT22;4934;50.852;8.098;2023-11-19T16:04:56;10.30;99.90
9790;DHT22;4934;50.852;8.098;2023-11-19T16:07:22;10.20;99.90
9790;DHT22;4934;50.852;8.098;2023-11-19T16:09:47;10.20;99.90
9790;DHT22;4934;50.852;8.098;2023-11-19T16:12:14;10.30;99.90
9790;DHT22;4934;50.852;8.098;2023-11-19T16:14:39;10.30;99.90
9790;DHT22;4934;50.852;8.098;2023-11-19T16:17:05;10.20;99.90
9790;DHT22;4934;50.852;8.098;2023-11-19T16:19:31;10.30;99.90
9790;DHT22;4934;50.852;8.098;2023-11-19T16:21:59;10.30;99.90